createdAt,value
2022-10-10T00:01:28.881Z,69.95
2022-10-10T00:03:56.043Z,70.17
2022-10-10T00:06:23.554Z,70.45
2022-10-10T00:08:50.590Z,70.52
2022-10-10T00:11:19.152Z,70.78
2022-10-10T00:13:46.288Z,70.67
2022-10-10T00:16:13.072Z,69.87
2022-10-10T00:18:41.005Z,70.46
2022-10-10T00:21:08.577Z,70.15
2022-10-10T00:23:35.883Z,70.01
2022-10-10T00:26:08.337Z,69.83
2022-10-10T00:28:36.308Z,70.75
2022-10-10T00:31:03.015Z,70.60
2022-10-10T00:33:29.756Z,70.52
2022-10-10T00:35:56.321Z,70.06
2022-10-10T00:38:23.696Z,70.28
2022-10-10T00:40:53.719Z,69.21
2022-10-10T00:43:22.411Z,69.58
2022-10-10T00:45:49.679Z,69.05
2022-10-10T00:48:20.806Z,69.53
2022-10-10T00:50:50.259Z,69.43
2022-10-10T00:53:20.434Z,69.24
2022-10-10T00:55:47.765Z,69.86
2022-10-10T00:58:17.256Z,69.86
2022-10-10T01:00:44.103Z,69.54
2022-10-10T01:03:11.086Z,69.54
2022-10-10T01:05:38.567Z,69.61
2022-10-10T01:08:07.142Z,70.38
2022-10-10T01:10:45.104Z,70.19
2022-10-10T01:13:21.076Z,71.13
2022-10-10T01:16:01.146Z,70.47
2022-10-10T01:19:15.070Z,70.63
2022-10-10T01:21:56.877Z,72.04
2022-10-10T01:24:26.350Z,72.47
2022-10-10T01:27:43.247Z,72.79
2022-10-10T01:30:12.012Z,73.60
2022-10-10T01:32:46.420Z,74.81
2022-10-10T01:35:21.811Z,75.01
2022-10-10T01:37:52.751Z,74.45
2022-10-10T01:40:54.727Z,74.32
2022-10-10T01:43:21.473Z,74.19
2022-10-10T01:45:51.263Z,75.39
2022-10-10T01:48:24.493Z,75.00
2022-10-10T01:51:19.040Z,74.80
2022-10-10T01:54:13.213Z,74.36
2022-10-10T01:56:52.764Z,74.72
2022-10-10T01:59:41.114Z,75.28
2022-10-10T02:02:35.164Z,75.14
2022-10-10T02:05:14.853Z,75.62
2022-10-10T02:07:54.246Z,75.53
2022-10-10T02:10:26.782Z,75.84
2022-10-10T02:12:55.688Z,76.74
2022-10-10T02:15:26.358Z,76.56
2022-10-10T02:17:56.241Z,77.05
2022-10-10T02:20:26.132Z,76.89
2022-10-10T02:22:54.757Z,76.79
2022-10-10T02:25:27.080Z,76.58
2022-10-10T02:28:20.515Z,76.52
2022-10-10T02:30:50.889Z,76.55
2022-10-10T02:33:23.180Z,76.64
2022-10-10T02:35:51.744Z,77.93
2022-10-10T02:38:19.515Z,77.24
2022-10-10T02:40:48.114Z,77.40
2022-10-10T02:43:16.710Z,77.85
2022-10-10T02:45:43.898Z,77.62
2022-10-10T02:48:10.513Z,77.83
2022-10-10T02:50:37.814Z,77.31
2022-10-10T02:53:04.439Z,76.70
2022-10-10T02:55:31.120Z,76.87
2022-10-10T02:57:57.784Z,76.32
2022-10-10T03:00:24.488Z,76.25
2022-10-10T03:02:51.349Z,76.94
2022-10-10T03:05:18.551Z,76.67
2022-10-10T03:07:45.182Z,76.58
2022-10-10T03:10:11.837Z,75.75
2022-10-10T03:12:38.838Z,76.03
2022-10-10T03:15:11.248Z,76.03
2022-10-10T03:17:38.575Z,75.92
2022-10-10T03:20:06.067Z,75.83
2022-10-10T03:22:33.057Z,76.03
2022-10-10T03:24:59.879Z,76.73
2022-10-10T03:27:26.855Z,76.66
2022-10-10T03:29:53.622Z,77.20
2022-10-10T03:32:20.497Z,76.76
2022-10-10T03:34:47.493Z,75.84
2022-10-10T03:37:14.384Z,76.20
2022-10-10T03:39:40.964Z,76.25
2022-10-10T03:42:07.697Z,75.25
2022-10-10T03:44:34.342Z,75.72
2022-10-10T03:47:01.069Z,75.56
2022-10-10T03:49:27.962Z,75.14
2022-10-10T03:51:54.670Z,74.95
2022-10-10T03:54:21.276Z,74.80
2022-10-10T03:56:48.088Z,74.12
2022-10-10T03:59:14.683Z,73.64
2022-10-10T04:01:41.447Z,73.23
2022-10-10T04:04:08.336Z,73.92
2022-10-10T04:06:35.115Z,74.42
2022-10-10T04:09:01.819Z,75.63
2022-10-10T04:11:28.577Z,76.92
2022-10-10T04:13:58.351Z,77.10
2022-10-10T04:16:25.101Z,77.95
2022-10-10T04:18:51.898Z,79.38
2022-10-10T04:21:19.139Z,78.88
2022-10-10T04:23:45.860Z,77.87
2022-10-10T04:26:12.575Z,78.04
2022-10-10T04:28:39.241Z,77.13
2022-10-10T04:31:06.143Z,77.49
2022-10-10T04:33:32.855Z,76.72
2022-10-10T04:35:59.521Z,76.66
2022-10-10T04:38:26.209Z,76.30
2022-10-10T04:40:53.022Z,76.24
2022-10-10T04:43:19.846Z,75.90
2022-10-10T04:45:47.027Z,75.07
2022-10-10T04:48:13.846Z,74.28
2022-10-10T04:50:40.735Z,75.13
2022-10-10T04:53:08.335Z,74.67
2022-10-10T04:55:35.209Z,74.91
2022-10-10T04:58:01.820Z,74.21
2022-10-10T05:00:28.498Z,74.72
2022-10-10T05:02:55.174Z,75.25
2022-10-10T05:05:21.921Z,75.69
2022-10-10T05:07:53.039Z,74.80
2022-10-10T05:10:22.186Z,75.05
2022-10-10T05:12:49.103Z,75.26
2022-10-10T05:15:16.269Z,76.04
2022-10-10T05:17:42.985Z,75.54
2022-10-10T05:20:10.465Z,75.71
2022-10-10T05:22:37.038Z,75.86
2022-10-10T05:25:04.225Z,75.99
2022-10-10T05:27:30.827Z,75.27
2022-10-10T05:29:57.608Z,75.77
2022-10-10T05:32:24.292Z,74.93
2022-10-10T05:34:51.085Z,75.90
2022-10-10T05:37:17.657Z,75.11
2022-10-10T05:39:44.389Z,75.10
2022-10-10T05:42:11.386Z,74.22
2022-10-10T05:44:38.007Z,74.77
2022-10-10T05:47:05.019Z,75.54
2022-10-10T05:49:31.715Z,74.18
2022-10-10T05:51:58.278Z,74.88
2022-10-10T05:54:25.256Z,73.79
2022-10-10T05:56:51.847Z,74.21
2022-10-10T05:59:18.523Z,73.75
2022-10-10T06:01:45.427Z,74.37
2022-10-10T06:04:12.332Z,73.96
2022-10-10T06:06:38.956Z,74.15
2022-10-10T06:09:05.887Z,75.01
2022-10-10T06:11:32.515Z,74.80
2022-10-10T06:13:59.179Z,74.94
2022-10-10T06:16:27.277Z,74.61
2022-10-10T06:18:54.013Z,74.33
2022-10-10T06:21:20.609Z,74.00
2022-10-10T06:23:47.393Z,74.39
2022-10-10T06:26:15.386Z,74.38
2022-10-10T06:28:42.156Z,73.95
2022-10-10T06:31:11.281Z,73.95
2022-10-10T06:33:37.914Z,74.76
2022-10-10T06:36:06.547Z,74.52
2022-10-10T06:38:40.764Z,74.83
2022-10-10T06:41:08.300Z,75.33
2022-10-10T06:43:35.345Z,75.31
2022-10-10T06:46:03.250Z,75.02
2022-10-10T06:48:29.937Z,75.11
2022-10-10T06:51:05.907Z,75.19
2022-10-10T06:53:33.204Z,74.89
2022-10-10T06:56:00.732Z,75.14
2022-10-10T06:58:29.223Z,76.22
2022-10-10T07:01:00.196Z,76.30
2022-10-10T07:03:28.566Z,76.63
2022-10-10T07:05:57.898Z,77.53
2022-10-10T07:08:25.222Z,77.14
2022-10-10T07:10:51.989Z,77.35
2022-10-10T07:13:19.262Z,76.84
2022-10-10T07:15:45.852Z,77.41
2022-10-10T07:18:12.768Z,77.22
2022-10-10T07:20:39.675Z,76.13
2022-10-10T07:23:06.341Z,75.69
2022-10-10T07:25:32.963Z,73.55
2022-10-10T07:27:59.770Z,73.94
2022-10-10T07:30:26.659Z,75.05
2022-10-10T07:32:54.181Z,76.22
2022-10-10T07:35:21.453Z,75.69
2022-10-10T07:37:48.552Z,73.94
2022-10-10T07:40:15.334Z,73.59
2022-10-10T07:42:42.106Z,72.93
2022-10-10T07:45:09.073Z,72.30
2022-10-10T07:47:35.794Z,72.03
2022-10-10T07:50:02.431Z,71.60
2022-10-10T07:52:29.143Z,71.29
2022-10-10T07:54:55.736Z,73.47
2022-10-10T07:57:22.462Z,73.16
2022-10-10T07:59:49.161Z,71.96
2022-10-10T08:02:15.919Z,71.37
2022-10-10T08:04:42.620Z,70.51
2022-10-10T08:07:09.534Z,70.29
2022-10-10T08:09:36.126Z,69.26
2022-10-10T08:12:02.848Z,69.36
2022-10-10T08:14:29.442Z,69.51
2022-10-10T08:16:56.124Z,69.53
2022-10-10T08:19:22.742Z,69.75
2022-10-10T08:21:49.412Z,69.68
2022-10-10T08:24:16.079Z,68.87
2022-10-10T08:26:42.787Z,69.28
2022-10-10T08:29:09.428Z,69.61
2022-10-10T08:31:36.246Z,71.48
2022-10-10T08:34:02.963Z,71.66
2022-10-10T08:36:29.615Z,70.24
2022-10-10T08:38:56.377Z,70.18
2022-10-10T08:41:31.792Z,69.07
2022-10-10T08:44:01.886Z,68.93
2022-10-10T08:46:57.552Z,68.45
2022-10-10T08:49:24.203Z,67.44
2022-10-10T08:52:06.928Z,67.52
2022-10-10T08:54:36.775Z,67.47
2022-10-10T08:57:06.536Z,65.85
2022-10-10T08:59:39.848Z,65.91
2022-10-10T09:02:43.724Z,66.82
2022-10-10T09:05:19.704Z,65.50
2022-10-10T09:08:26.780Z,65.66
2022-10-10T09:11:37.591Z,65.01
2022-10-10T09:14:17.353Z,64.04
2022-10-10T09:17:10.598Z,64.80
2022-10-10T09:20:06.844Z,63.34
2022-10-10T09:22:42.600Z,63.77
2022-10-10T09:25:20.905Z,62.80
2022-10-10T09:27:58.850Z,62.36
2022-10-10T09:30:27.752Z,62.97
2022-10-10T09:33:01.994Z,61.63
2022-10-10T09:35:32.268Z,61.96
2022-10-10T09:38:10.784Z,60.95
2022-10-10T09:40:43.725Z,61.83
2022-10-10T09:43:15.329Z,60.12
2022-10-10T09:45:47.393Z,59.66
2022-10-10T09:48:14.304Z,58.68
2022-10-10T09:50:43.773Z,58.60
2022-10-10T09:53:16.287Z,58.48
2022-10-10T09:55:45.783Z,60.81
2022-10-10T09:58:21.673Z,59.07
2022-10-10T10:00:48.665Z,58.84
2022-10-10T10:03:18.273Z,58.84
2022-10-10T10:05:54.923Z,58.87
2022-10-10T10:08:36.439Z,58.33
2022-10-10T10:11:04.873Z,58.93
2022-10-10T10:13:36.899Z,56.71
2022-10-10T10:16:12.691Z,56.89
2022-10-10T10:18:44.477Z,58.51
2022-10-10T10:21:16.523Z,58.98
2022-10-10T10:23:48.824Z,58.66
2022-10-10T10:26:18.358Z,58.50
2022-10-10T10:28:46.273Z,57.67
2022-10-10T10:31:24.582Z,57.82
2022-10-10T10:34:06.943Z,57.85
2022-10-10T10:36:42.403Z,57.77
2022-10-10T10:39:27.675Z,57.87
2022-10-10T10:42:24.815Z,55.99
2022-10-10T10:45:23.485Z,57.17
2022-10-10T10:47:56.067Z,56.63
2022-10-10T10:50:40.029Z,56.00
2022-10-10T10:53:31.833Z,57.35
2022-10-10T10:59:39.025Z,56.42
2022-10-10T11:02:08.951Z,57.07
2022-10-10T11:05:17.217Z,56.82
2022-10-10T11:07:38.382Z,56.96
2022-10-10T11:10:07.952Z,56.57
2022-10-10T11:12:50.671Z,55.85
2022-10-10T11:16:04.928Z,56.65
2022-10-10T11:18:33.224Z,55.70
2022-10-10T11:21:09.201Z,56.06
2022-10-10T11:23:53.479Z,55.00
2022-10-10T11:26:42.307Z,54.91
2022-10-10T11:29:36.842Z,55.66
2022-10-10T11:32:23.156Z,55.73
2022-10-10T11:35:06.831Z,57.58
2022-10-10T11:37:40.060Z,56.25
2022-10-10T11:40:23.786Z,55.98
2022-10-10T11:42:57.165Z,55.56
2022-10-10T11:45:43.604Z,56.68
2022-10-10T11:48:25.656Z,57.60
2022-10-10T11:51:06.113Z,56.04
2022-10-10T11:53:43.658Z,56.23
2022-10-10T11:56:17.971Z,56.12
2022-10-10T11:58:51.179Z,54.94
2022-10-10T12:01:25.497Z,54.63
2022-10-10T12:03:52.402Z,54.60
2022-10-10T12:06:42.306Z,56.50
2022-10-10T12:09:30.205Z,54.63
2022-10-10T12:12:02.839Z,55.23
2022-10-10T12:14:31.366Z,55.79
2022-10-10T12:16:58.930Z,54.75
2022-10-10T12:19:28.216Z,54.89
2022-10-10T12:22:01.557Z,55.07
2022-10-10T12:24:31.387Z,55.17
2022-10-10T12:26:58.224Z,55.49
2022-10-10T12:29:51.045Z,54.06
2022-10-10T12:32:21.090Z,53.31
2022-10-10T12:34:50.712Z,54.41
2022-10-10T12:37:22.331Z,54.82
2022-10-10T12:40:07.955Z,54.89
2022-10-10T12:43:00.982Z,54.30
2022-10-10T12:45:30.804Z,54.07
2022-10-10T12:48:06.063Z,53.99
2022-10-10T12:50:40.389Z,54.43
2022-10-10T12:53:18.757Z,54.94
2022-10-10T12:55:47.891Z,54.95
2022-10-10T12:58:27.542Z,54.22
2022-10-10T13:01:09.224Z,55.54
2022-10-10T13:03:47.719Z,55.41
2022-10-10T13:06:33.658Z,55.22
2022-10-10T13:09:02.846Z,56.34
2022-10-10T13:11:29.604Z,55.75
2022-10-10T13:13:57.779Z,55.45
2022-10-10T13:16:32.822Z,54.58
2022-10-10T13:19:01.269Z,55.36
2022-10-10T13:21:33.731Z,55.66
2022-10-10T13:24:04.291Z,54.75
2022-10-10T13:26:32.891Z,55.67
2022-10-10T13:29:05.066Z,54.97
2022-10-10T13:31:31.922Z,54.88
2022-10-10T13:34:02.411Z,55.15
2022-10-10T13:36:31.166Z,54.38
2022-10-10T13:38:58.543Z,55.08
2022-10-10T13:41:27.367Z,55.79
2022-10-10T13:43:54.676Z,55.83
2022-10-10T13:46:23.982Z,56.14
2022-10-10T13:48:50.651Z,55.75
2022-10-10T13:51:17.642Z,55.69
2022-10-10T13:53:47.292Z,55.05
2022-10-10T13:56:30.340Z,55.08
2022-10-10T13:59:04.667Z,53.81
2022-10-10T14:01:31.434Z,53.96
2022-10-10T14:04:07.846Z,54.05
2022-10-10T14:06:35.399Z,55.01
2022-10-10T14:09:34.517Z,53.82
2022-10-10T14:12:04.201Z,53.92
2022-10-10T14:14:40.439Z,54.69
2022-10-10T14:17:10.345Z,53.99
2022-10-10T14:19:37.462Z,52.91
2022-10-10T14:22:04.484Z,54.73
2022-10-10T14:24:31.350Z,54.17
2022-10-10T14:27:04.655Z,55.31
2022-10-10T14:29:31.441Z,54.14
2022-10-10T14:31:58.080Z,55.09
2022-10-10T14:34:24.821Z,54.33
2022-10-10T14:36:51.505Z,54.50
2022-10-10T14:39:19.497Z,54.87
2022-10-10T14:41:46.510Z,55.71
2022-10-10T14:44:13.861Z,55.91
2022-10-10T14:46:41.655Z,56.29
2022-10-10T14:49:19.453Z,57.11
2022-10-10T14:51:47.035Z,56.99
2022-10-10T14:54:14.510Z,56.67
2022-10-10T14:57:07.411Z,56.78
2022-10-10T14:59:46.199Z,56.92
2022-10-10T15:02:18.034Z,57.23
2022-10-10T15:04:44.643Z,57.06
2022-10-10T15:07:14.358Z,57.73
2022-10-10T15:09:56.556Z,57.65
2022-10-10T15:12:29.879Z,56.94
2022-10-10T15:14:56.491Z,57.47
2022-10-10T15:17:23.369Z,57.05
2022-10-10T15:19:49.935Z,57.06
2022-10-10T15:22:16.982Z,57.82
2022-10-10T15:24:43.687Z,57.39
2022-10-10T15:27:10.299Z,57.02
2022-10-10T15:29:38.952Z,56.63
2022-10-10T15:32:05.871Z,56.71
2022-10-10T15:34:32.502Z,56.83
2022-10-10T15:36:59.282Z,57.32
2022-10-10T15:39:25.898Z,57.29
2022-10-10T15:41:52.623Z,57.21
2022-10-10T15:44:19.592Z,57.26
2022-10-10T15:46:46.319Z,57.90
2022-10-10T15:49:13.457Z,58.39
2022-10-10T15:51:44.706Z,58.79
2022-10-10T15:54:11.928Z,59.14
2022-10-10T15:56:39.181Z,58.25
2022-10-10T15:59:06.537Z,58.30
2022-10-10T16:01:33.163Z,58.71
2022-10-10T16:04:02.853Z,59.04
2022-10-10T16:06:30.305Z,58.40
2022-10-10T16:09:16.277Z,58.00
2022-10-10T16:11:44.167Z,57.30
2022-10-10T16:14:11.187Z,57.46
2022-10-10T16:16:38.246Z,56.62
2022-10-10T16:19:05.240Z,57.24
2022-10-10T16:21:32.151Z,58.11
2022-10-10T16:23:59.603Z,57.86
2022-10-10T16:26:30.236Z,57.52
2022-10-10T16:28:57.679Z,57.44
2022-10-10T16:31:24.796Z,57.46
2022-10-10T16:33:52.239Z,57.06
2022-10-10T16:36:25.967Z,57.01
2022-10-10T16:38:54.756Z,57.00
2022-10-10T16:41:42.884Z,57.30
2022-10-10T16:44:09.922Z,57.93
2022-10-10T16:46:36.480Z,57.56
2022-10-10T16:49:03.183Z,57.85
2022-10-10T16:51:30.111Z,57.87
2022-10-10T16:54:00.405Z,57.45
2022-10-10T16:56:27.462Z,57.56
2022-10-10T16:58:54.155Z,57.09
2022-10-10T17:01:22.914Z,56.83
2022-10-10T17:03:51.049Z,57.68
2022-10-10T17:06:20.682Z,57.59
2022-10-10T17:08:52.680Z,57.34
2022-10-10T17:11:21.196Z,57.08
2022-10-10T17:13:48.587Z,57.86
2022-10-10T17:19:05.392Z,56.75
2022-10-10T17:21:32.047Z,57.08
2022-10-10T17:23:59.314Z,58.18
2022-10-10T17:26:26.567Z,57.62
2022-10-10T17:28:55.610Z,56.89
2022-10-10T17:31:22.852Z,56.38
2022-10-10T17:33:53.529Z,56.33
2022-10-10T17:36:23.585Z,58.04
2022-10-10T17:38:50.276Z,58.03
2022-10-10T17:41:18.243Z,59.35
2022-10-10T17:43:45.528Z,58.81
2022-10-10T17:46:33.947Z,60.71
2022-10-10T17:49:03.046Z,60.40
2022-10-10T17:51:29.684Z,59.82
2022-10-10T17:53:59.764Z,60.19
2022-10-10T17:56:26.487Z,60.13
2022-10-10T17:58:53.354Z,57.34
2022-10-10T18:01:20.716Z,57.37
2022-10-10T18:03:48.202Z,57.13
2022-10-10T18:06:18.210Z,56.87
2022-10-10T18:08:47.235Z,57.08
2022-10-10T18:11:15.994Z,57.62
2022-10-10T18:13:42.840Z,58.25
2022-10-10T18:16:14.463Z,60.00
2022-10-10T18:18:45.660Z,61.21
2022-10-10T18:21:16.327Z,62.47
2022-10-10T18:23:42.964Z,62.52
2022-10-10T18:26:19.195Z,63.09
2022-10-10T18:28:46.581Z,64.05
2022-10-10T18:31:21.693Z,64.06
2022-10-10T18:33:48.809Z,64.29
2022-10-10T18:36:18.805Z,65.13
2022-10-10T18:38:46.058Z,64.93
2022-10-10T18:41:15.344Z,65.20
2022-10-10T18:43:42.507Z,64.91
2022-10-10T18:46:12.301Z,64.78
2022-10-10T18:48:39.355Z,64.99
2022-10-10T18:51:12.572Z,64.63
2022-10-10T18:53:41.950Z,64.32
2022-10-10T18:56:09.221Z,63.86
2022-10-10T18:58:36.773Z,63.79
2022-10-10T19:01:08.151Z,63.86
2022-10-10T19:03:36.808Z,63.58
2022-10-10T19:06:04.871Z,63.12
2022-10-10T19:08:31.565Z,62.88
2022-10-10T19:10:58.259Z,62.99
2022-10-10T19:13:25.101Z,62.67
2022-10-10T19:15:51.855Z,62.97
2022-10-10T19:18:19.752Z,63.24
2022-10-10T19:20:46.881Z,63.13
2022-10-10T19:23:14.595Z,63.41
2022-10-10T19:25:43.015Z,63.37
2022-10-10T19:28:09.798Z,63.30
2022-10-10T19:30:41.416Z,63.18
2022-10-10T19:33:09.287Z,63.29
2022-10-10T19:35:40.901Z,63.24
2022-10-10T19:38:10.065Z,63.48
2022-10-10T19:40:43.635Z,63.73
2022-10-10T19:43:10.500Z,63.69
2022-10-10T19:45:48.496Z,65.37
2022-10-10T19:48:16.081Z,65.52
2022-10-10T19:50:44.294Z,65.61
2022-10-10T19:53:14.434Z,66.23
2022-10-10T19:55:41.482Z,65.89
2022-10-10T19:58:08.258Z,65.66
2022-10-10T20:00:37.108Z,65.77
2022-10-10T20:03:03.936Z,65.60
2022-10-10T20:05:30.618Z,65.57
2022-10-10T20:07:57.326Z,65.71
2022-10-10T20:10:23.984Z,65.75
2022-10-10T20:12:50.621Z,65.80
2022-10-10T20:15:17.278Z,66.25
2022-10-10T20:17:44.263Z,66.62
2022-10-10T20:20:10.956Z,67.00
2022-10-10T20:22:38.355Z,67.58
2022-10-10T20:25:06.459Z,68.45
2022-10-10T20:27:34.130Z,68.53
2022-10-10T20:30:00.733Z,69.27
2022-10-10T20:32:27.432Z,70.22
2022-10-10T20:34:54.021Z,71.62
2022-10-10T20:37:20.736Z,71.75
2022-10-10T20:39:47.442Z,71.26
2022-10-10T20:42:14.079Z,70.95
2022-10-10T20:44:40.674Z,70.77
2022-10-10T20:47:07.455Z,70.32
2022-10-10T20:49:34.070Z,70.22
2022-10-10T20:52:00.662Z,69.83
2022-10-10T20:54:27.430Z,69.02
2022-10-10T20:56:54.086Z,68.67
2022-10-10T20:59:21.010Z,68.33
2022-10-10T21:01:47.868Z,68.04
2022-10-10T21:04:14.920Z,67.96
2022-10-10T21:06:42.249Z,68.18
2022-10-10T21:09:10.719Z,68.15
2022-10-10T21:11:37.842Z,67.87
2022-10-10T21:14:04.515Z,67.91
2022-10-10T21:16:37.370Z,67.54
2022-10-10T21:19:05.479Z,67.75
2022-10-10T21:21:33.227Z,67.31
2022-10-10T21:24:00.877Z,66.64
2022-10-10T21:26:29.011Z,66.37
2022-10-10T21:28:57.464Z,66.31
2022-10-10T21:31:34.221Z,66.29
2022-10-10T21:34:02.919Z,66.00
2022-10-10T21:36:30.510Z,65.88
2022-10-10T21:38:58.623Z,65.95
2022-10-10T21:41:25.636Z,65.87
2022-10-10T21:43:55.765Z,65.79
2022-10-10T21:46:25.693Z,66.15
2022-10-10T21:48:52.548Z,66.19
2022-10-10T21:51:20.172Z,65.89
2022-10-10T21:53:47.995Z,65.89
2022-10-10T21:56:15.270Z,65.47
2022-10-10T21:58:43.678Z,65.82
2022-10-10T22:01:15.894Z,65.40
2022-10-10T22:03:44.155Z,65.29
2022-10-10T22:06:13.980Z,64.86
2022-10-10T22:08:41.959Z,65.13
2022-10-10T22:11:15.205Z,65.12
2022-10-10T22:13:42.017Z,64.90
2022-10-10T22:16:09.659Z,65.26
2022-10-10T22:18:37.934Z,65.17
2022-10-10T22:21:07.404Z,65.26
2022-10-10T22:23:34.103Z,65.57
2022-10-10T22:26:00.889Z,65.24
2022-10-10T22:28:27.778Z,65.10
2022-10-10T22:30:54.531Z,65.21
2022-10-10T22:33:21.253Z,65.26
2022-10-10T22:35:47.833Z,65.51
2022-10-10T22:38:14.552Z,65.38
2022-10-10T22:40:41.147Z,66.45
2022-10-10T22:43:07.903Z,66.29
2022-10-10T22:45:34.637Z,67.37
2022-10-10T22:48:01.286Z,68.38
2022-10-10T22:50:27.938Z,67.99
2022-10-10T22:52:54.662Z,67.57
2022-10-10T22:55:21.253Z,66.85
2022-10-10T22:57:47.941Z,66.38
2022-10-10T23:00:15.744Z,66.21
2022-10-10T23:02:42.421Z,66.50
2022-10-10T23:05:09.352Z,67.64
2022-10-10T23:07:36.054Z,67.13
2022-10-10T23:10:02.874Z,67.21
2022-10-10T23:12:29.607Z,67.48
2022-10-10T23:14:56.245Z,67.75
2022-10-10T23:17:22.979Z,68.24
2022-10-10T23:19:49.560Z,68.89
2022-10-10T23:22:16.314Z,69.88
2022-10-10T23:24:42.929Z,70.35
2022-10-10T23:27:09.595Z,70.62
2022-10-10T23:29:36.235Z,71.04
2022-10-10T23:32:02.929Z,71.07
2022-10-10T23:34:29.529Z,71.32
2022-10-10T23:36:56.423Z,71.76
2022-10-10T23:39:22.997Z,73.46
2022-10-10T23:41:49.659Z,73.09
2022-10-10T23:44:16.276Z,72.94
2022-10-10T23:46:42.924Z,72.41
2022-10-10T23:49:10.095Z,72.92
2022-10-10T23:51:36.958Z,75.24
2022-10-10T23:54:03.660Z,75.83
2022-10-10T23:56:30.449Z,77.85
2022-10-10T23:58:57.254Z,78.06
